Estación Meteorológica Peña el Pijo (Robertgarden) [ 11/16/18 15:01:14 CET ]

Fecha Hora Presion(HPa) Temp (°C) Humedad % Rocio (°C) Viento ( m/s) Direccion Lluvia 1Hora(mm) Lluvia 24H(mm) LLuvia Total(mm)
2018-Sep-26 01:02:06 1017.600 19.2 78 15.3         354.31
2018-Sep-26 02:01:47 1017.900 18.4 81 15.1         354.31
2018-Sep-26 03:01:39 1017.700 18.1 82 15.0         354.31
2018-Sep-26 04:01:44 1017.300 17.8 83 14.9         354.31
2018-Sep-26 05:01:40 1017.200 17.9 83 15.0         354.31
2018-Sep-26 06:04:11 1017.500 17.8 83 14.9         354.31
2018-Sep-26 07:02:03 1017.900 16.8 86 14.4     0.51 0.51 354.83
2018-Sep-26 08:01:42 1018.500 16.2 88 14.2       0.51 354.83
2018-Sep-26 09:01:51 1018.900 16.3 88 14.3       0.51 354.83
2018-Sep-26 10:01:56 1019.600 17.6 88 15.6       0.51 354.83
2018-Sep-26 11:01:30 1019.900 17.8 84 15.1       0.51 354.83
2018-Sep-26 12:01:47 1020.200 18.3 83 15.4       0.51 354.83
2018-Sep-26 13:01:46 1020.200 19.9 76 15.6       0.51 354.83
2018-Sep-26 14:01:38 1019.900 21.4 69 15.5       0.51 354.83
2018-Sep-26 15:01:54 1019.400 23.4 58 14.6       0.51 354.83
2018-Sep-26 16:01:51 1019.100 23.4 60 15.2 3.3 ENE   0.51 354.83
2018-Sep-26 17:01:36 1018.900 22.8 56 13.5       0.51 354.83
2018-Sep-26 18:01:52 1018.900 23.4 55 13.8       0.51 354.83
2018-Sep-26 19:01:32 1019.700 19.1 70 13.5 1.3 ENE   0.51 354.83
2018-Sep-26 20:01:50 1019.800 17.1 77 13.0       0.51 354.83
2018-Sep-26 21:01:50 1020.100 16.4 79 12.8       0.51 354.83
2018-Sep-26 22:01:48 1020.900 16.4 81 13.1       0.51 354.83
2018-Sep-26 23:01:47 1021.100 16.2 81 13.0       0.51 354.83

Temperatura Máxima:23°    Temperatura Mínima:16°
Presión Máxima:1021.100 Hpa    Presión Mínima:1017.200 Hpa


Volver